sensor_id;sensor_type;location;lat;lon;timestamp;temperature;humidity
516;DHT22;244;48.508;9.052;2022-09-09T00:00:54;16.00;15.30
516;DHT22;244;48.508;9.052;2022-09-09T00:03:26;16.00;15.30
516;DHT22;244;48.508;9.052;2022-09-09T00:06:01;16.00;15.40
516;DHT22;244;48.508;9.052;2022-09-09T00:08:38;15.90;15.40
516;DHT22;244;48.508;9.052;2022-09-09T00:11:09;15.90;15.50
516;DHT22;244;48.508;9.052;2022-09-09T00:13:43;15.90;15.60
516;DHT22;244;48.508;9.052;2022-09-09T00:16:16;15.90;15.60
516;DHT22;244;48.508;9.052;2022-09-09T00:18:51;15.90;15.70
516;DHT22;244;48.508;9.052;2022-09-09T00:21:23;16.00;15.90
516;DHT22;244;48.508;9.052;2022-09-09T00:23:54;16.00;15.80
516;DHT22;244;48.508;9.052;2022-09-09T00:26:26;16.00;15.80
516;DHT22;244;48.508;9.052;2022-09-09T00:29:03;16.00;15.70
516;DHT22;244;48.508;9.052;2022-09-09T00:31:33;15.90;15.70
516;DHT22;244;48.508;9.052;2022-09-09T00:34:09;16.00;15.80
516;DHT22;244;48.508;9.052;2022-09-09T00:36:39;15.90;15.90
516;DHT22;244;48.508;9.052;2022-09-09T00:39:12;15.90;15.80
516;DHT22;244;48.508;9.052;2022-09-09T00:41:54;15.90;15.90
516;DHT22;244;48.508;9.052;2022-09-09T00:44:30;15.90;16.00
516;DHT22;244;48.508;9.052;2022-09-09T00:47:12;15.90;16.00
516;DHT22;244;48.508;9.052;2022-09-09T00:49:53;15.90;16.00
516;DHT22;244;48.508;9.052;2022-09-09T00:52:27;15.90;16.60
516;DHT22;244;48.508;9.052;2022-09-09T00:55:04;15.80;16.00
516;DHT22;244;48.508;9.052;2022-09-09T00:57:33;15.80;16.10
516;DHT22;244;48.508;9.052;2022-09-09T01:00:20;15.80;16.20
516;DHT22;244;48.508;9.052;2022-09-09T01:02:56;15.80;16.20
516;DHT22;244;48.508;9.052;2022-09-09T01:05:29;15.80;16.20
516;DHT22;244;48.508;9.052;2022-09-09T01:07:58;15.80;16.10
516;DHT22;244;48.508;9.052;2022-09-09T01:10:36;15.80;16.20
516;DHT22;244;48.508;9.052;2022-09-09T01:13:13;15.80;16.20
516;DHT22;244;48.508;9.052;2022-09-09T01:15:42;15.80;16.40
516;DHT22;244;48.508;9.052;2022-09-09T01:18:13;15.80;16.40
516;DHT22;244;48.508;9.052;2022-09-09T01:20:51;15.70;16.30
516;DHT22;244;48.508;9.052;2022-09-09T01:23:43;15.70;16.30
516;DHT22;244;48.508;9.052;2022-09-09T01:26:26;15.70;16.40
516;DHT22;244;48.508;9.052;2022-09-09T01:28:55;15.70;16.50
516;DHT22;244;48.508;9.052;2022-09-09T01:31:26;15.70;16.60
516;DHT22;244;48.508;9.052;2022-09-09T01:33:53;15.60;16.60
516;DHT22;244;48.508;9.052;2022-09-09T01:36:26;15.60;16.70
516;DHT22;244;48.508;9.052;2022-09-09T01:38:55;15.60;16.50
516;DHT22;244;48.508;9.052;2022-09-09T01:41:23;15.60;16.50
516;DHT22;244;48.508;9.052;2022-09-09T01:43:52;15.50;16.60
516;DHT22;244;48.508;9.052;2022-09-09T01:46:21;15.50;16.60
516;DHT22;244;48.508;9.052;2022-09-09T01:48:49;15.50;17.30
516;DHT22;244;48.508;9.052;2022-09-09T01:51:16;15.50;16.60
516;DHT22;244;48.508;9.052;2022-09-09T01:53:43;15.50;16.80
516;DHT22;244;48.508;9.052;2022-09-09T01:56:23;15.50;16.80
516;DHT22;244;48.508;9.052;2022-09-09T01:59:08;15.50;16.90
516;DHT22;244;48.508;9.052;2022-09-09T02:01:49;15.40;16.80
516;DHT22;244;48.508;9.052;2022-09-09T02:04:31;15.40;16.80
516;DHT22;244;48.508;9.052;2022-09-09T02:07:02;15.40;16.80
516;DHT22;244;48.508;9.052;2022-09-09T02:09:30;15.40;17.40
516;DHT22;244;48.508;9.052;2022-09-09T02:12:00;15.40;16.80
516;DHT22;244;48.508;9.052;2022-09-09T02:14:34;15.40;17.00
516;DHT22;244;48.508;9.052;2022-09-09T02:17:07;15.40;17.10
516;DHT22;244;48.508;9.052;2022-09-09T02:19:37;15.40;17.10
516;DHT22;244;48.508;9.052;2022-09-09T02:22:05;15.40;17.10
516;DHT22;244;48.508;9.052;2022-09-09T02:24:35;15.40;17.10
516;DHT22;244;48.508;9.052;2022-09-09T02:27:05;15.50;17.20
516;DHT22;244;48.508;9.052;2022-09-09T02:29:38;15.50;17.30
516;DHT22;244;48.508;9.052;2022-09-09T02:32:10;15.50;17.20
516;DHT22;244;48.508;9.052;2022-09-09T02:34:42;15.40;17.20
516;DHT22;244;48.508;9.052;2022-09-09T02:37:10;15.40;17.20
516;DHT22;244;48.508;9.052;2022-09-09T02:39:38;15.40;17.30
516;DHT22;244;48.508;9.052;2022-09-09T02:42:05;15.40;17.40
516;DHT22;244;48.508;9.052;2022-09-09T02:44:35;15.50;17.50
516;DHT22;244;48.508;9.052;2022-09-09T02:47:14;15.50;17.50
516;DHT22;244;48.508;9.052;2022-09-09T02:49:48;15.50;17.60
516;DHT22;244;48.508;9.052;2022-09-09T02:52:26;15.50;17.60
516;DHT22;244;48.508;9.052;2022-09-09T02:54:59;15.50;17.60
516;DHT22;244;48.508;9.052;2022-09-09T02:57:29;15.50;17.60
516;DHT22;244;48.508;9.052;2022-09-09T02:59:59;15.50;17.60
516;DHT22;244;48.508;9.052;2022-09-09T03:02:27;15.50;17.70
516;DHT22;244;48.508;9.052;2022-09-09T03:04:54;15.50;17.60
516;DHT22;244;48.508;9.052;2022-09-09T03:07:21;15.50;17.60
516;DHT22;244;48.508;9.052;2022-09-09T03:09:48;15.50;17.60
516;DHT22;244;48.508;9.052;2022-09-09T03:12:15;15.50;17.60
516;DHT22;244;48.508;9.052;2022-09-09T03:14:42;15.50;17.70
516;DHT22;244;48.508;9.052;2022-09-09T03:17:12;15.50;17.80
516;DHT22;244;48.508;9.052;2022-09-09T03:19:39;15.50;17.80
516;DHT22;244;48.508;9.052;2022-09-09T03:22:07;15.50;17.90
516;DHT22;244;48.508;9.052;2022-09-09T03:24:35;15.60;18.00
516;DHT22;244;48.508;9.052;2022-09-09T03:27:02;15.60;18.00
516;DHT22;244;48.508;9.052;2022-09-09T03:29:29;15.60;17.90
516;DHT22;244;48.508;9.052;2022-09-09T03:31:56;15.70;18.00
516;DHT22;244;48.508;9.052;2022-09-09T03:34:24;15.80;17.90
516;DHT22;244;48.508;9.052;2022-09-09T03:36:51;15.80;17.90
516;DHT22;244;48.508;9.052;2022-09-09T03:39:18;15.90;17.90
516;DHT22;244;48.508;9.052;2022-09-09T03:41:45;15.90;17.80
516;DHT22;244;48.508;9.052;2022-09-09T03:44:14;16.00;17.80
516;DHT22;244;48.508;9.052;2022-09-09T03:46:41;16.00;17.70
516;DHT22;244;48.508;9.052;2022-09-09T03:49:07;16.00;17.70
516;DHT22;244;48.508;9.052;2022-09-09T03:51:37;16.00;17.70
516;DHT22;244;48.508;9.052;2022-09-09T03:54:04;16.00;17.70
516;DHT22;244;48.508;9.052;2022-09-09T03:56:33;16.00;17.70
516;DHT22;244;48.508;9.052;2022-09-09T03:59:00;16.00;17.60
516;DHT22;244;48.508;9.052;2022-09-09T04:01:27;16.00;17.60
516;DHT22;244;48.508;9.052;2022-09-09T04:03:54;16.00;17.50
516;DHT22;244;48.508;9.052;2022-09-09T04:06:24;16.00;17.50
516;DHT22;244;48.508;9.052;2022-09-09T04:08:52;15.90;17.50
516;DHT22;244;48.508;9.052;2022-09-09T04:11:20;16.00;17.60
516;DHT22;244;48.508;9.052;2022-09-09T04:13:47;16.00;17.70
516;DHT22;244;48.508;9.052;2022-09-09T04:16:15;16.00;17.70
516;DHT22;244;48.508;9.052;2022-09-09T04:18:42;16.00;17.60
516;DHT22;244;48.508;9.052;2022-09-09T04:21:10;16.00;17.60
516;DHT22;244;48.508;9.052;2022-09-09T04:23:37;16.00;17.60
516;DHT22;244;48.508;9.052;2022-09-09T04:26:06;16.10;18.30
516;DHT22;244;48.508;9.052;2022-09-09T04:28:35;16.10;17.60
516;DHT22;244;48.508;9.052;2022-09-09T04:31:06;16.20;17.60
516;DHT22;244;48.508;9.052;2022-09-09T04:33:33;16.20;17.50
516;DHT22;244;48.508;9.052;2022-09-09T04:36:00;16.20;17.50
516;DHT22;244;48.508;9.052;2022-09-09T04:38:27;16.20;17.40
516;DHT22;244;48.508;9.052;2022-09-09T04:40:54;16.20;17.50
516;DHT22;244;48.508;9.052;2022-09-09T04:43:23;16.20;17.50
516;DHT22;244;48.508;9.052;2022-09-09T04:45:51;16.20;17.40
516;DHT22;244;48.508;9.052;2022-09-09T04:48:19;16.20;17.40
516;DHT22;244;48.508;9.052;2022-09-09T04:50:54;16.10;17.30
516;DHT22;244;48.508;9.052;2022-09-09T04:53:22;16.10;17.30
516;DHT22;244;48.508;9.052;2022-09-09T04:55:48;16.00;17.40
516;DHT22;244;48.508;9.052;2022-09-09T04:58:16;16.00;17.30
516;DHT22;244;48.508;9.052;2022-09-09T05:00:45;15.90;17.90
516;DHT22;244;48.508;9.052;2022-09-09T05:03:12;15.90;17.40
516;DHT22;244;48.508;9.052;2022-09-09T05:05:38;15.90;17.60
516;DHT22;244;48.508;9.052;2022-09-09T05:08:07;15.90;17.70
516;DHT22;244;48.508;9.052;2022-09-09T05:10:37;15.90;17.80
516;DHT22;244;48.508;9.052;2022-09-09T05:13:04;15.90;17.70
516;DHT22;244;48.508;9.052;2022-09-09T05:15:32;15.90;17.60
516;DHT22;244;48.508;9.052;2022-09-09T05:18:01;16.00;17.70
516;DHT22;244;48.508;9.052;2022-09-09T05:20:28;16.00;18.30
516;DHT22;244;48.508;9.052;2022-09-09T05:22:56;16.00;17.60
516;DHT22;244;48.508;9.052;2022-09-09T05:25:23;16.10;17.70
516;DHT22;244;48.508;9.052;2022-09-09T05:27:51;16.10;17.60
516;DHT22;244;48.508;9.052;2022-09-09T05:30:19;16.20;17.60
516;DHT22;244;48.508;9.052;2022-09-09T05:32:47;16.30;17.60
516;DHT22;244;48.508;9.052;2022-09-09T05:35:15;16.30;17.60
516;DHT22;244;48.508;9.052;2022-09-09T05:37:44;16.40;17.60
516;DHT22;244;48.508;9.052;2022-09-09T05:40:12;16.50;17.70
516;DHT22;244;48.508;9.052;2022-09-09T05:42:39;16.50;17.60
516;DHT22;244;48.508;9.052;2022-09-09T05:45:06;16.60;17.60
516;DHT22;244;48.508;9.052;2022-09-09T05:47:34;16.70;17.50
516;DHT22;244;48.508;9.052;2022-09-09T05:50:03;16.70;17.40
516;DHT22;244;48.508;9.052;2022-09-09T05:52:31;16.80;17.50
516;DHT22;244;48.508;9.052;2022-09-09T05:54:58;16.90;17.40
516;DHT22;244;48.508;9.052;2022-09-09T05:57:25;16.90;17.20
516;DHT22;244;48.508;9.052;2022-09-09T05:59:52;17.00;17.30
516;DHT22;244;48.508;9.052;2022-09-09T06:02:19;17.10;17.30
516;DHT22;244;48.508;9.052;2022-09-09T06:04:45;17.10;17.30
516;DHT22;244;48.508;9.052;2022-09-09T06:07:12;17.20;17.20
516;DHT22;244;48.508;9.052;2022-09-09T06:09:41;17.20;17.10
516;DHT22;244;48.508;9.052;2022-09-09T06:12:08;17.30;17.10
516;DHT22;244;48.508;9.052;2022-09-09T06:14:35;17.40;17.10
516;DHT22;244;48.508;9.052;2022-09-09T06:17:02;17.40;17.10
516;DHT22;244;48.508;9.052;2022-09-09T06:19:29;17.50;17.00
516;DHT22;244;48.508;9.052;2022-09-09T06:21:56;17.60;17.00
516;DHT22;244;48.508;9.052;2022-09-09T06:24:23;17.60;16.90
516;DHT22;244;48.508;9.052;2022-09-09T06:26:51;17.70;16.80
516;DHT22;244;48.508;9.052;2022-09-09T06:29:18;17.80;16.80
516;DHT22;244;48.508;9.052;2022-09-09T06:31:45;17.90;16.70
516;DHT22;244;48.508;9.052;2022-09-09T06:34:13;18.00;16.60
516;DHT22;244;48.508;9.052;2022-09-09T06:36:39;18.10;16.60
516;DHT22;244;48.508;9.052;2022-09-09T06:39:07;18.20;16.50
516;DHT22;244;48.508;9.052;2022-09-09T06:41:36;18.30;16.40
516;DHT22;244;48.508;9.052;2022-09-09T06:44:05;18.30;16.20
516;DHT22;244;48.508;9.052;2022-09-09T06:46:32;18.40;16.20
516;DHT22;244;48.508;9.052;2022-09-09T06:49:01;18.50;16.20
516;DHT22;244;48.508;9.052;2022-09-09T06:51:30;18.60;16.20
516;DHT22;244;48.508;9.052;2022-09-09T06:53:59;18.70;16.10
516;DHT22;244;48.508;9.052;2022-09-09T06:56:28;18.80;15.90
516;DHT22;244;48.508;9.052;2022-09-09T06:58:57;18.90;15.80
516;DHT22;244;48.508;9.052;2022-09-09T07:01:29;19.00;15.60
516;DHT22;244;48.508;9.052;2022-09-09T07:03:58;19.10;15.60
516;DHT22;244;48.508;9.052;2022-09-09T07:06:26;19.20;15.50
516;DHT22;244;48.508;9.052;2022-09-09T07:08:54;19.30;15.40
516;DHT22;244;48.508;9.052;2022-09-09T07:11:23;19.40;15.30
516;DHT22;244;48.508;9.052;2022-09-09T07:13:51;19.40;15.70
516;DHT22;244;48.508;9.052;2022-09-09T07:16:19;19.50;15.00
516;DHT22;244;48.508;9.052;2022-09-09T07:18:47;19.60;14.90
516;DHT22;244;48.508;9.052;2022-09-09T07:21:16;19.60;14.90
516;DHT22;244;48.508;9.052;2022-09-09T07:23:43;19.70;14.90
516;DHT22;244;48.508;9.052;2022-09-09T07:26:11;19.70;14.80
516;DHT22;244;48.508;9.052;2022-09-09T07:28:39;19.70;14.80
516;DHT22;244;48.508;9.052;2022-09-09T07:31:08;19.60;14.80
516;DHT22;244;48.508;9.052;2022-09-09T07:33:39;19.60;14.80
516;DHT22;244;48.508;9.052;2022-09-09T07:36:14;19.60;14.90
516;DHT22;244;48.508;9.052;2022-09-09T07:38:43;19.60;14.90
516;DHT22;244;48.508;9.052;2022-09-09T07:41:14;19.60;14.90
516;DHT22;244;48.508;9.052;2022-09-09T07:43:43;19.60;14.90
516;DHT22;244;48.508;9.052;2022-09-09T07:46:12;19.70;15.00
516;DHT22;244;48.508;9.052;2022-09-09T07:48:42;19.80;15.00
516;DHT22;244;48.508;9.052;2022-09-09T07:51:13;20.00;14.90
516;DHT22;244;48.508;9.052;2022-09-09T07:53:44;20.00;14.70
516;DHT22;244;48.508;9.052;2022-09-09T07:56:15;20.00;14.70
516;DHT22;244;48.508;9.052;2022-09-09T07:58:45;20.00;14.70
516;DHT22;244;48.508;9.052;2022-09-09T08:01:15;20.00;14.70
516;DHT22;244;48.508;9.052;2022-09-09T08:03:43;20.00;14.60
516;DHT22;244;48.508;9.052;2022-09-09T08:06:13;20.10;14.60
516;DHT22;244;48.508;9.052;2022-09-09T08:08:40;20.10;14.60
516;DHT22;244;48.508;9.052;2022-09-09T08:11:11;20.10;14.50
516;DHT22;244;48.508;9.052;2022-09-09T08:13:40;20.10;14.60
516;DHT22;244;48.508;9.052;2022-09-09T08:16:10;20.00;14.60
516;DHT22;244;48.508;9.052;2022-09-09T08:18:37;20.00;14.70
516;DHT22;244;48.508;9.052;2022-09-09T08:21:07;20.00;14.70
516;DHT22;244;48.508;9.052;2022-09-09T08:23:36;20.00;14.70
516;DHT22;244;48.508;9.052;2022-09-09T08:26:09;20.10;14.80
516;DHT22;244;48.508;9.052;2022-09-09T08:28:36;20.30;14.80
516;DHT22;244;48.508;9.052;2022-09-09T08:31:08;20.40;14.60
516;DHT22;244;48.508;9.052;2022-09-09T08:33:35;20.60;14.50
516;DHT22;244;48.508;9.052;2022-09-09T08:36:04;21.00;14.40
516;DHT22;244;48.508;9.052;2022-09-09T08:38:32;21.30;14.10
516;DHT22;244;48.508;9.052;2022-09-09T08:41:07;21.50;13.70
516;DHT22;244;48.508;9.052;2022-09-09T08:43:36;21.50;13.70
516;DHT22;244;48.508;9.052;2022-09-09T08:46:07;21.40;13.70
516;DHT22;244;48.508;9.052;2022-09-09T08:48:47;21.30;13.50
516;DHT22;244;48.508;9.052;2022-09-09T08:51:18;21.20;13.50
516;DHT22;244;48.508;9.052;2022-09-09T08:53:48;21.10;13.70
516;DHT22;244;48.508;9.052;2022-09-09T08:56:21;21.10;13.80
516;DHT22;244;48.508;9.052;2022-09-09T08:58:49;21.00;14.40
516;DHT22;244;48.508;9.052;2022-09-09T09:04:36;21.00;13.80
516;DHT22;244;48.508;9.052;2022-09-09T09:07:12;21.00;13.80
516;DHT22;244;48.508;9.052;2022-09-09T09:09:47;21.00;13.80
516;DHT22;244;48.508;9.052;2022-09-09T09:12:19;21.00;13.80
516;DHT22;244;48.508;9.052;2022-09-09T09:14:48;21.10;13.90
516;DHT22;244;48.508;9.052;2022-09-09T09:17:17;21.10;13.70
516;DHT22;244;48.508;9.052;2022-09-09T09:19:46;21.20;13.50
516;DHT22;244;48.508;9.052;2022-09-09T09:22:17;21.20;13.50
516;DHT22;244;48.508;9.052;2022-09-09T09:24:51;21.30;13.60
516;DHT22;244;48.508;9.052;2022-09-09T09:27:28;21.30;13.60
516;DHT22;244;48.508;9.052;2022-09-09T09:29:58;21.30;13.40
516;DHT22;244;48.508;9.052;2022-09-09T09:32:28;21.40;13.80
516;DHT22;244;48.508;9.052;2022-09-09T09:34:58;21.50;13.00
516;DHT22;244;48.508;9.052;2022-09-09T09:37:32;21.50;12.70
516;DHT22;244;48.508;9.052;2022-09-09T09:40:08;21.60;12.40
516;DHT22;244;48.508;9.052;2022-09-09T09:42:37;21.60;12.10
516;DHT22;244;48.508;9.052;2022-09-09T09:45:13;21.70;11.90
516;DHT22;244;48.508;9.052;2022-09-09T09:47:41;21.80;11.60
516;DHT22;244;48.508;9.052;2022-09-09T09:50:20;21.90;11.30
516;DHT22;244;48.508;9.052;2022-09-09T09:52:54;22.00;11.00
516;DHT22;244;48.508;9.052;2022-09-09T09:55:23;22.10;10.40
516;DHT22;244;48.508;9.052;2022-09-09T09:57:52;22.10;9.80
516;DHT22;244;48.508;9.052;2022-09-09T10:00:21;22.20;9.40
516;DHT22;244;48.508;9.052;2022-09-09T10:02:49;22.30;9.10
516;DHT22;244;48.508;9.052;2022-09-09T10:05:20;22.40;8.80
516;DHT22;244;48.508;9.052;2022-09-09T10:07:47;22.40;8.50
516;DHT22;244;48.508;9.052;2022-09-09T10:10:36;22.50;8.70
516;DHT22;244;48.508;9.052;2022-09-09T10:13:13;22.50;7.90
516;DHT22;244;48.508;9.052;2022-09-09T10:15:51;22.60;7.80
516;DHT22;244;48.508;9.052;2022-09-09T10:18:38;22.70;7.80
516;DHT22;244;48.508;9.052;2022-09-09T10:21:13;22.80;7.80
516;DHT22;244;48.508;9.052;2022-09-09T10:23:54;22.90;7.60
516;DHT22;244;48.508;9.052;2022-09-09T10:26:35;22.90;7.30
516;DHT22;244;48.508;9.052;2022-09-09T10:29:25;22.90;7.20
516;DHT22;244;48.508;9.052;2022-09-09T10:32:02;23.00;7.10
516;DHT22;244;48.508;9.052;2022-09-09T10:34:45;23.10;6.70
516;DHT22;244;48.508;9.052;2022-09-09T10:37:28;23.20;5.90
516;DHT22;244;48.508;9.052;2022-09-09T10:40:04;23.30;5.70
516;DHT22;244;48.508;9.052;2022-09-09T10:42:33;23.40;5.20
516;DHT22;244;48.508;9.052;2022-09-09T10:45:13;23.50;4.40
516;DHT22;244;48.508;9.052;2022-09-09T10:48:18;23.60;4.00
516;DHT22;244;48.508;9.052;2022-09-09T10:50:55;23.90;4.00
516;DHT22;244;48.508;9.052;2022-09-09T10:53:31;24.20;3.50
516;DHT22;244;48.508;9.052;2022-09-09T10:56:04;24.40;3.10
516;DHT22;244;48.508;9.052;2022-09-09T10:58:36;24.70;3.00
516;DHT22;244;48.508;9.052;2022-09-09T11:01:13;25.00;2.80
516;DHT22;244;48.508;9.052;2022-09-09T11:03:43;25.30;2.30
516;DHT22;244;48.508;9.052;2022-09-09T11:06:15;25.50;2.00
516;DHT22;244;48.508;9.052;2022-09-09T11:08:45;25.60;1.20
516;DHT22;244;48.508;9.052;2022-09-09T11:11:16;25.70;1.00
516;DHT22;244;48.508;9.052;2022-09-09T11:13:48;25.70;1.00
516;DHT22;244;48.508;9.052;2022-09-09T11:16:24;25.70;1.00
516;DHT22;244;48.508;9.052;2022-09-09T11:18:57;25.70;1.00
516;DHT22;244;48.508;9.052;2022-09-09T11:21:28;25.60;1.00
516;DHT22;244;48.508;9.052;2022-09-09T11:23:59;25.20;1.00
516;DHT22;244;48.508;9.052;2022-09-09T11:26:31;24.70;1.00
516;DHT22;244;48.508;9.052;2022-09-09T11:29:13;24.30;1.00
516;DHT22;244;48.508;9.052;2022-09-09T11:31:59;24.00;1.00
516;DHT22;244;48.508;9.052;2022-09-09T11:34:45;23.70;1.00
516;DHT22;244;48.508;9.052;2022-09-09T11:37:23;23.70;1.00
516;DHT22;244;48.508;9.052;2022-09-09T11:40:14;23.60;1.00
516;DHT22;244;48.508;9.052;2022-09-09T11:42:42;23.50;1.00
516;DHT22;244;48.508;9.052;2022-09-09T11:45:19;23.40;1.00
516;DHT22;244;48.508;9.052;2022-09-09T11:47:53;23.30;1.00
516;DHT22;244;48.508;9.052;2022-09-09T11:50:32;23.20;1.00
516;DHT22;244;48.508;9.052;2022-09-09T11:53:18;23.10;1.00
516;DHT22;244;48.508;9.052;2022-09-09T11:55:48;23.00;1.00
516;DHT22;244;48.508;9.052;2022-09-09T11:58:26;23.00;1.00
516;DHT22;244;48.508;9.052;2022-09-09T12:00:54;23.00;1.00
516;DHT22;244;48.508;9.052;2022-09-09T12:03:40;23.00;1.00
516;DHT22;244;48.508;9.052;2022-09-09T12:06:18;23.00;1.00
516;DHT22;244;48.508;9.052;2022-09-09T12:08:48;23.10;1.00
516;DHT22;244;48.508;9.052;2022-09-09T12:11:25;23.20;1.00
516;DHT22;244;48.508;9.052;2022-09-09T12:13:54;23.30;1.00
516;DHT22;244;48.508;9.052;2022-09-09T12:16:30;23.40;1.00
516;DHT22;244;48.508;9.052;2022-09-09T12:19:15;23.50;1.00
516;DHT22;244;48.508;9.052;2022-09-09T12:21:49;23.80;1.00
516;DHT22;244;48.508;9.052;2022-09-09T12:24:23;24.20;1.00
516;DHT22;244;48.508;9.052;2022-09-09T12:26:58;24.50;1.00
516;DHT22;244;48.508;9.052;2022-09-09T12:29:32;24.50;1.00
516;DHT22;244;48.508;9.052;2022-09-09T12:32:07;24.60;1.00
516;DHT22;244;48.508;9.052;2022-09-09T12:34:41;24.50;1.00
516;DHT22;244;48.508;9.052;2022-09-09T12:37:15;24.50;1.00
516;DHT22;244;48.508;9.052;2022-09-09T12:39:47;24.50;1.00
516;DHT22;244;48.508;9.052;2022-09-09T12:42:17;24.30;1.00
516;DHT22;244;48.508;9.052;2022-09-09T12:44:52;24.30;1.00
516;DHT22;244;48.508;9.052;2022-09-09T12:47:20;24.30;1.00
516;DHT22;244;48.508;9.052;2022-09-09T12:49:49;24.20;1.00
516;DHT22;244;48.508;9.052;2022-09-09T12:52:23;24.00;1.00
516;DHT22;244;48.508;9.052;2022-09-09T12:54:51;24.00;1.00
516;DHT22;244;48.508;9.052;2022-09-09T12:57:20;23.90;1.00
516;DHT22;244;48.508;9.052;2022-09-09T12:59:50;23.90;1.00
516;DHT22;244;48.508;9.052;2022-09-09T13:02:20;23.90;1.00
516;DHT22;244;48.508;9.052;2022-09-09T13:04:49;24.00;1.00
516;DHT22;244;48.508;9.052;2022-09-09T13:07:16;24.30;1.00
516;DHT22;244;48.508;9.052;2022-09-09T13:09:44;24.60;1.00
516;DHT22;244;48.508;9.052;2022-09-09T13:12:14;24.70;1.00
516;DHT22;244;48.508;9.052;2022-09-09T13:14:45;24.70;1.00
516;DHT22;244;48.508;9.052;2022-09-09T13:17:20;24.70;1.00
516;DHT22;244;48.508;9.052;2022-09-09T13:19:50;24.70;1.00
516;DHT22;244;48.508;9.052;2022-09-09T13:22:21;24.70;1.00
516;DHT22;244;48.508;9.052;2022-09-09T13:24:59;24.60;1.00
516;DHT22;244;48.508;9.052;2022-09-09T13:27:30;24.50;1.00
516;DHT22;244;48.508;9.052;2022-09-09T13:29:59;24.60;1.00
516;DHT22;244;48.508;9.052;2022-09-09T13:32:27;24.60;1.00
516;DHT22;244;48.508;9.052;2022-09-09T13:34:56;24.70;1.00
516;DHT22;244;48.508;9.052;2022-09-09T13:37:29;24.80;1.00
516;DHT22;244;48.508;9.052;2022-09-09T13:39:58;24.90;1.00
516;DHT22;244;48.508;9.052;2022-09-09T13:42:27;25.10;1.00
516;DHT22;244;48.508;9.052;2022-09-09T13:44:55;25.20;1.00
516;DHT22;244;48.508;9.052;2022-09-09T13:47:28;25.20;1.00
516;DHT22;244;48.508;9.052;2022-09-09T13:49:58;25.10;1.00
516;DHT22;244;48.508;9.052;2022-09-09T13:52:27;25.00;1.00
516;DHT22;244;48.508;9.052;2022-09-09T13:54:56;24.90;1.00
516;DHT22;244;48.508;9.052;2022-09-09T13:57:24;25.00;1.00
516;DHT22;244;48.508;9.052;2022-09-09T13:59:52;25.10;1.00
516;DHT22;244;48.508;9.052;2022-09-09T14:02:20;25.10;1.00
516;DHT22;244;48.508;9.052;2022-09-09T14:04:48;25.30;1.00
516;DHT22;244;48.508;9.052;2022-09-09T14:07:18;25.30;1.00
516;DHT22;244;48.508;9.052;2022-09-09T14:09:45;25.30;1.00
516;DHT22;244;48.508;9.052;2022-09-09T14:12:16;25.40;1.00
516;DHT22;244;48.508;9.052;2022-09-09T14:14:43;25.50;1.00
516;DHT22;244;48.508;9.052;2022-09-09T14:17:11;25.60;1.00
516;DHT22;244;48.508;9.052;2022-09-09T14:19:37;25.60;1.00
516;DHT22;244;48.508;9.052;2022-09-09T14:22:04;25.50;1.00
516;DHT22;244;48.508;9.052;2022-09-09T14:24:33;25.60;1.00
516;DHT22;244;48.508;9.052;2022-09-09T14:26:59;25.70;1.00
516;DHT22;244;48.508;9.052;2022-09-09T14:29:26;25.80;1.00
516;DHT22;244;48.508;9.052;2022-09-09T14:31:53;26.00;1.00
516;DHT22;244;48.508;9.052;2022-09-09T14:34:20;26.10;1.00
516;DHT22;244;48.508;9.052;2022-09-09T14:36:47;26.30;1.00
516;DHT22;244;48.508;9.052;2022-09-09T14:39:14;26.70;1.00
516;DHT22;244;48.508;9.052;2022-09-09T14:41:42;27.10;1.00
516;DHT22;244;48.508;9.052;2022-09-09T14:44:09;28.00;1.00
516;DHT22;244;48.508;9.052;2022-09-09T14:46:35;29.40;1.00
516;DHT22;244;48.508;9.052;2022-09-09T14:49:02;30.50;1.00
516;DHT22;244;48.508;9.052;2022-09-09T14:51:30;29.80;1.00
516;DHT22;244;48.508;9.052;2022-09-09T14:53:58;28.80;1.00
516;DHT22;244;48.508;9.052;2022-09-09T14:56:28;29.20;1.00
516;DHT22;244;48.508;9.052;2022-09-09T14:58:58;29.30;1.00
516;DHT22;244;48.508;9.052;2022-09-09T15:01:26;28.70;1.00
516;DHT22;244;48.508;9.052;2022-09-09T15:03:55;28.20;1.00
516;DHT22;244;48.508;9.052;2022-09-09T15:06:23;27.70;1.00
516;DHT22;244;48.508;9.052;2022-09-09T15:08:51;27.20;1.00
516;DHT22;244;48.508;9.052;2022-09-09T15:11:19;26.90;1.00
516;DHT22;244;48.508;9.052;2022-09-09T15:13:46;27.70;1.00
516;DHT22;244;48.508;9.052;2022-09-09T15:16:16;28.80;1.00
516;DHT22;244;48.508;9.052;2022-09-09T15:18:44;28.80;1.00
516;DHT22;244;48.508;9.052;2022-09-09T15:21:13;28.40;1.00
516;DHT22;244;48.508;9.052;2022-09-09T15:23:41;28.00;1.00
516;DHT22;244;48.508;9.052;2022-09-09T15:26:08;27.50;1.00
516;DHT22;244;48.508;9.052;2022-09-09T15:28:37;27.10;1.00
516;DHT22;244;48.508;9.052;2022-09-09T15:31:06;26.70;1.00
516;DHT22;244;48.508;9.052;2022-09-09T15:33:35;26.30;1.00
516;DHT22;244;48.508;9.052;2022-09-09T15:36:13;25.90;1.00
516;DHT22;244;48.508;9.052;2022-09-09T15:38:40;25.30;1.00
516;DHT22;244;48.508;9.052;2022-09-09T15:41:07;24.90;1.00
516;DHT22;244;48.508;9.052;2022-09-09T15:43:34;24.60;1.00
516;DHT22;244;48.508;9.052;2022-09-09T15:46:13;24.60;1.00
516;DHT22;244;48.508;9.052;2022-09-09T15:48:51;24.50;1.00
516;DHT22;244;48.508;9.052;2022-09-09T15:51:18;24.40;1.00
516;DHT22;244;48.508;9.052;2022-09-09T15:53:45;24.30;1.00
516;DHT22;244;48.508;9.052;2022-09-09T15:56:13;24.20;1.00
516;DHT22;244;48.508;9.052;2022-09-09T15:58:40;24.00;1.00
516;DHT22;244;48.508;9.052;2022-09-09T16:01:10;23.90;1.00
516;DHT22;244;48.508;9.052;2022-09-09T16:03:39;23.80;1.00
516;DHT22;244;48.508;9.052;2022-09-09T16:06:09;23.70;1.00
516;DHT22;244;48.508;9.052;2022-09-09T16:08:37;23.70;1.00
516;DHT22;244;48.508;9.052;2022-09-09T16:11:06;23.70;1.00
516;DHT22;244;48.508;9.052;2022-09-09T16:13:35;23.70;1.00
516;DHT22;244;48.508;9.052;2022-09-09T16:16:04;23.70;1.00
516;DHT22;244;48.508;9.052;2022-09-09T16:18:35;23.70;1.00
516;DHT22;244;48.508;9.052;2022-09-09T16:21:02;23.60;1.00
516;DHT22;244;48.508;9.052;2022-09-09T16:23:32;23.60;1.00
516;DHT22;244;48.508;9.052;2022-09-09T16:25:59;23.50;1.00
516;DHT22;244;48.508;9.052;2022-09-09T16:28:26;23.40;1.00
516;DHT22;244;48.508;9.052;2022-09-09T16:30:54;23.30;1.00
516;DHT22;244;48.508;9.052;2022-09-09T16:33:21;23.20;1.00
516;DHT22;244;48.508;9.052;2022-09-09T16:35:48;23.10;1.00
516;DHT22;244;48.508;9.052;2022-09-09T16:38:15;23.00;1.00
516;DHT22;244;48.508;9.052;2022-09-09T16:40:44;22.90;1.00
516;DHT22;244;48.508;9.052;2022-09-09T16:43:11;22.80;1.00
516;DHT22;244;48.508;9.052;2022-09-09T16:45:42;22.70;1.00
516;DHT22;244;48.508;9.052;2022-09-09T16:48:09;22.60;1.00
516;DHT22;244;48.508;9.052;2022-09-09T16:50:37;22.50;1.00
516;DHT22;244;48.508;9.052;2022-09-09T16:53:05;22.40;1.00
516;DHT22;244;48.508;9.052;2022-09-09T16:55:38;22.30;1.00
516;DHT22;244;48.508;9.052;2022-09-09T16:58:06;22.10;1.00
516;DHT22;244;48.508;9.052;2022-09-09T17:00:34;22.00;1.00
516;DHT22;244;48.508;9.052;2022-09-09T17:03:01;22.00;1.00
516;DHT22;244;48.508;9.052;2022-09-09T17:05:28;21.90;1.00
516;DHT22;244;48.508;9.052;2022-09-09T17:07:55;21.90;1.00